This is the latest recevied weather packets stored in our database for station/object K1WJY. If no packets are shown the sender has not sent any weather packets the latest 10 day(s).
| Time | Temp. | Humidity | Pressure | Rain* | Wind** | Luminosity | Snow |
|---|---|---|---|---|---|---|---|
| 1787591739 | 23.33° C | 90% | 1015.5 hPa | 0 mm | - | 270 W/m² | - |
| 1787591435 | 22.78° C | 91% | 1015.6 hPa | 0 mm | - | 615 W/m² | - |
| 1787591130 | 23.33° C | 89% | 1015.7 hPa | 0 mm | - | 321 W/m² | - |
| 1787590827 | 23.33° C | 90% | 1015.9 hPa | 0 mm | - | 654 W/m² | - |
| 1787590521 | 22.78° C | 93% | 1015.8 hPa | 0 mm | - | 737 W/m² | - |
| 1787590217 | 23.33° C | 93% | 1015.9 hPa | 0 mm | - | 259 W/m² | - |
| 1787589912 | 22.78° C | 94% | 1016 hPa | 0 mm | - | 794 W/m² | - |
| 1787589608 | 22.78° C | 95% | 1016 hPa | 0 mm | - | 347 W/m² | - |
| 1787589307 | 22.78° C | 94% | 1016 hPa | 0 mm | - | 308 W/m² | - |
| 1787589003 | 22.78° C | 95% | 1015.9 hPa | 0 mm | - | 650 W/m² | - |
| 1787588699 | 22.78° C | 96% | 1015.9 hPa | 0 mm | - | 440 W/m² | - |
| 1787588395 | 22.22° C | 97% | 1015.8 hPa | 0 mm | - | 793 W/m² | - |
| 1787588090 | 21.67° C | 99% | 1016 hPa | 0 mm | - | 528 W/m² | - |
| 1787587785 | 21.11° C | 99% | 1016.1 hPa | 0 mm | - | 511 W/m² | - |
| 1787587485 | 21.11° C | 99% | 1015.9 hPa | 0 mm | - | 241 W/m² | - |
| 1787587184 | 21.11° C | 99% | 1016 hPa | 0 mm | - | 267 W/m² | - |
| 1787586879 | 20.56° C | 99% | 1016 hPa | 0 mm | - | 370 W/m² | - |
| 1787586575 | 20.56° C | 99% | 1016.2 hPa | 0 mm | - | 326 W/m² | - |
| 1787586270 | 20.56° C | 99% | 1015.9 hPa | 0 mm | - | 223 W/m² | - |
| 1787585967 | 20.56° C | 99% | 1016.3 hPa | 0 mm | - | 155 W/m² | - |
| 1787585666 | 20.56° C | 99% | 1016 hPa | 0 mm | - | 220 W/m² | - |
| 1787585366 | 20° C | 99% | 1015.8 hPa | 0 mm | - | 238 W/m² | - |
| 1787585061 | 20° C | 99% | 1015.9 hPa | 0 mm | - | 138 W/m² | - |
| 1787584757 | 20° C | 99% | 1015.8 hPa | 0 mm | - | 154 W/m² | - |
| 1787584455 | 20° C | 99% | 1016.1 hPa | 0 mm | - | 155 W/m² | - |
* Rain latest hour (hover to see other rain measurements)
** Current wind speed in m/s (hover to see current wind gust speed)